createdAt,value
2022-12-17T00:01:59.595Z,73.03
2022-12-17T00:05:20.305Z,73.90
2022-12-17T00:08:40.616Z,71.95
2022-12-17T00:12:00.994Z,73.28
2022-12-17T00:15:21.272Z,73.50
2022-12-17T00:18:41.754Z,75.88
2022-12-17T00:22:02.234Z,75.88
2022-12-17T00:25:22.526Z,79.53
2022-12-17T00:28:53.482Z,73.43
2022-12-17T00:32:13.999Z,74.07
2022-12-17T00:35:34.557Z,66.43
2022-12-17T00:38:55.038Z,73.57
2022-12-17T00:42:16.936Z,74.80
2022-12-17T00:45:37.610Z,72.30
2022-12-17T00:48:58.710Z,69.20
2022-12-17T00:52:19.163Z,68.10
2022-12-17T00:55:42.030Z,57.47
2022-12-17T00:59:02.729Z,66.97
2022-12-17T01:02:27.859Z,62.70
2022-12-17T01:05:48.664Z,70.68
2022-12-17T01:09:09.208Z,64.72
2022-12-17T01:12:30.539Z,61.75
2022-12-17T01:15:51.118Z,65.95
2022-12-17T01:19:12.016Z,65.68
2022-12-17T01:22:32.581Z,65.65
2022-12-17T01:25:53.255Z,64.75
2022-12-17T01:29:17.140Z,62.50
2022-12-17T01:32:37.418Z,63.58
2022-12-17T01:35:57.970Z,62.45
2022-12-17T01:39:18.783Z,61.08
2022-12-17T01:42:39.107Z,60.00
2022-12-17T01:46:08.519Z,59.92
2022-12-17T01:49:30.751Z,61.30
2022-12-17T01:52:51.441Z,59.90
2022-12-17T01:56:15.026Z,53.05
2022-12-17T02:02:58.080Z,55.97
2022-12-17T02:06:31.043Z,55.15
2022-12-17T02:10:19.354Z,51.47
2022-12-17T02:13:57.464Z,54.40
2022-12-17T02:17:23.395Z,57.55
2022-12-17T02:20:51.573Z,57.22
2022-12-17T02:24:25.313Z,58.47
2022-12-17T02:31:07.046Z,58.25
2022-12-17T02:34:27.421Z,61.60
2022-12-17T02:37:48.113Z,58.08
2022-12-17T02:41:08.750Z,60.17
2022-12-17T02:44:30.586Z,58.83
2022-12-17T02:47:51.058Z,65.45
2022-12-17T02:51:14.938Z,62.65
2022-12-17T02:54:35.121Z,59.75
2022-12-17T02:57:55.596Z,55.33
2022-12-17T03:01:16.486Z,59.15
2022-12-17T03:04:37.081Z,53.45
2022-12-17T03:08:00.518Z,59.10
2022-12-17T03:11:34.714Z,57.10
2022-12-17T03:14:54.891Z,60.42
2022-12-17T03:18:18.560Z,53.88
2022-12-17T03:21:39.123Z,59.72
2022-12-17T03:24:59.575Z,60.35
2022-12-17T03:28:29.356Z,66.40
2022-12-17T03:31:50.014Z,65.25
2022-12-17T03:35:10.398Z,56.53
2022-12-17T03:38:31.751Z,56.95
2022-12-17T03:41:57.075Z,57.85
2022-12-17T03:45:31.384Z,56.97
2022-12-17T03:48:51.811Z,59.40
2022-12-17T03:52:12.201Z,61.58
2022-12-17T03:55:32.646Z,61.65
2022-12-17T03:58:53.227Z,58.53
2022-12-17T04:02:14.526Z,58.97
2022-12-17T04:05:35.356Z,63.33
2022-12-17T04:08:55.542Z,59.90
2022-12-17T04:12:18.336Z,61.80
2022-12-17T04:15:38.960Z,64.43
2022-12-17T04:18:59.374Z,59.25
2022-12-17T04:22:22.896Z,62.28
2022-12-17T04:29:05.160Z,57.53
2022-12-17T04:32:25.442Z,59.83
2022-12-17T04:35:45.694Z,57.17
2022-12-17T04:39:06.127Z,60.78
2022-12-17T04:42:26.730Z,62.65
2022-12-17T04:45:47.415Z,59.47
2022-12-17T04:49:09.611Z,60.10
2022-12-17T04:52:30.463Z,61.20
2022-12-17T04:55:50.573Z,68.03
2022-12-17T04:59:11.194Z,61.65
2022-12-17T05:02:32.030Z,65.78
2022-12-17T05:05:52.760Z,62.15
2022-12-17T05:09:13.633Z,61.85
2022-12-17T05:12:34.343Z,59.88
2022-12-17T05:15:54.778Z,65.28
2022-12-17T05:19:14.973Z,66.13
2022-12-17T05:22:35.022Z,67.72
2022-12-17T05:25:55.688Z,72.13
2022-12-17T05:29:16.415Z,70.80
2022-12-17T05:32:37.282Z,66.90
2022-12-17T05:35:57.476Z,73.00
2022-12-17T05:39:17.695Z,70.88
2022-12-17T05:42:37.953Z,69.55
2022-12-17T05:46:02.398Z,75.03
2022-12-17T05:49:23.078Z,72.90
2022-12-17T05:52:43.342Z,77.93
2022-12-17T05:56:08.489Z,69.65
2022-12-17T05:59:32.199Z,74.82
2022-12-17T06:02:52.630Z,73.13
2022-12-17T06:06:15.489Z,76.45
2022-12-17T06:09:36.966Z,74.65
2022-12-17T06:12:57.633Z,71.78
2022-12-17T06:16:18.030Z,74.18
2022-12-17T06:19:38.654Z,79.70
2022-12-17T06:22:59.291Z,76.35
2022-12-17T06:26:19.792Z,75.72
2022-12-17T06:29:40.070Z,79.22
2022-12-17T06:33:00.699Z,79.82
2022-12-17T06:36:22.872Z,77.80
2022-12-17T06:39:43.395Z,82.28
2022-12-17T06:43:14.487Z,74.40
2022-12-17T06:46:35.175Z,73.43
2022-12-17T06:50:01.077Z,78.70
2022-12-17T06:53:24.472Z,78.60
2022-12-17T06:56:45.813Z,77.70
2022-12-17T07:00:06.969Z,74.80
2022-12-17T07:03:30.629Z,79.05
2022-12-17T07:06:51.243Z,77.35
2022-12-17T07:10:14.370Z,77.32
2022-12-17T07:13:35.501Z,72.32
2022-12-17T07:16:56.267Z,68.00
2022-12-17T07:20:17.238Z,71.78
2022-12-17T07:23:37.977Z,71.75
2022-12-17T07:27:08.555Z,75.78
2022-12-17T07:30:29.575Z,71.00
2022-12-17T07:33:50.182Z,82.90
2022-12-17T07:37:20.809Z,75.88
2022-12-17T07:40:53.732Z,80.90
2022-12-17T07:44:23.415Z,84.83
2022-12-17T07:47:46.963Z,75.63
2022-12-17T07:54:28.910Z,78.35
2022-12-17T07:57:53.254Z,70.20
2022-12-17T08:01:14.633Z,82.57
2022-12-17T08:04:35.365Z,67.63
2022-12-17T08:07:55.911Z,71.15
2022-12-17T08:11:16.828Z,77.88
2022-12-17T08:14:37.455Z,73.03
2022-12-17T08:17:58.000Z,68.60
2022-12-17T08:21:19.200Z,71.13
2022-12-17T08:24:39.347Z,75.18
2022-12-17T08:28:04.567Z,68.47
2022-12-17T08:31:31.534Z,67.07
2022-12-17T08:34:52.268Z,68.63
2022-12-17T08:38:12.888Z,64.78
2022-12-17T08:41:32.945Z,68.47
2022-12-17T08:44:53.464Z,69.35
2022-12-17T08:48:22.312Z,56.45
2022-12-17T08:51:43.532Z,54.67
2022-12-17T08:55:04.508Z,55.63
2022-12-17T08:58:25.117Z,56.83
2022-12-17T09:01:45.735Z,61.47
2022-12-17T09:05:06.643Z,57.10
2022-12-17T09:08:27.168Z,53.83
2022-12-17T09:11:47.350Z,53.58
2022-12-17T09:15:07.712Z,52.40
2022-12-17T09:18:27.998Z,47.47
2022-12-17T09:21:50.617Z,49.65
2022-12-17T09:25:10.880Z,51.27
2022-12-17T09:28:33.505Z,53.80
2022-12-17T09:31:53.982Z,49.73
2022-12-17T09:35:14.649Z,51.72
2022-12-17T09:38:35.242Z,52.72
2022-12-17T09:42:23.302Z,52.60
2022-12-17T09:46:04.196Z,54.72
2022-12-17T09:49:46.622Z,47.30
2022-12-17T09:53:07.287Z,54.00
2022-12-17T09:56:32.759Z,52.45
2022-12-17T09:59:54.724Z,50.78
2022-12-17T10:03:15.543Z,51.50
2022-12-17T10:06:41.228Z,54.50
2022-12-17T10:10:10.528Z,53.42
2022-12-17T10:13:39.789Z,50.53
2022-12-17T10:17:08.538Z,53.05
2022-12-17T10:21:03.140Z,53.90
2022-12-17T10:24:28.635Z,59.97
2022-12-17T10:27:49.048Z,53.92
2022-12-17T10:31:09.438Z,59.50
2022-12-17T10:34:39.844Z,52.80
2022-12-17T10:38:00.497Z,55.33
2022-12-17T10:41:21.311Z,50.30
2022-12-17T10:44:54.998Z,51.83
2022-12-17T10:48:15.581Z,54.40
2022-12-17T10:51:55.879Z,56.72
2022-12-17T10:55:20.745Z,64.68
2022-12-17T10:58:47.576Z,67.38
2022-12-17T11:02:17.647Z,69.75
2022-12-17T11:05:46.273Z,64.75
2022-12-17T11:09:06.929Z,67.15
2022-12-17T11:12:31.197Z,63.78
2022-12-17T11:16:02.807Z,59.92
2022-12-17T11:19:32.796Z,62.63
2022-12-17T11:23:18.242Z,55.28
2022-12-17T11:26:39.809Z,62.58
2022-12-17T11:30:03.130Z,60.08
2022-12-17T11:33:23.648Z,52.13
2022-12-17T11:37:06.937Z,51.83
2022-12-17T11:41:08.835Z,46.78
2022-12-17T11:45:09.514Z,41.20
2022-12-17T11:48:55.134Z,42.65
2022-12-17T11:53:00.837Z,43.88
2022-12-17T11:56:30.930Z,45.95
2022-12-17T12:00:23.151Z,48.33
2022-12-17T12:12:25.641Z,43.72
2022-12-17T12:16:09.450Z,47.22
2022-12-17T12:19:45.947Z,45.30
2022-12-17T12:24:01.921Z,44.08
2022-12-17T12:27:42.841Z,39.80
2022-12-17T12:31:13.248Z,44.20
2022-12-17T12:34:55.368Z,53.25
2022-12-17T12:38:15.918Z,56.00
2022-12-17T12:41:48.128Z,57.92
2022-12-17T12:45:19.901Z,62.20
2022-12-17T12:48:43.745Z,55.13
2022-12-17T12:52:04.817Z,70.40
2022-12-17T12:55:25.656Z,63.17
2022-12-17T12:58:49.613Z,63.42
2022-12-17T13:02:10.198Z,57.92
2022-12-17T13:05:47.406Z,54.55
2022-12-17T13:09:20.978Z,59.13
2022-12-17T13:12:35.187Z,55.47
2022-12-17T13:15:46.332Z,51.85
2022-12-17T13:19:00.843Z,60.25
2022-12-17T13:22:12.923Z,58.78
2022-12-17T13:25:23.609Z,56.17
2022-12-17T13:28:30.995Z,53.92
2022-12-17T13:31:46.996Z,51.38
2022-12-17T13:34:59.628Z,109.63
2022-12-17T13:38:22.067Z,86.67
2022-12-17T13:41:34.001Z,75.75
2022-12-17T13:44:46.289Z,60.20
2022-12-17T13:47:59.246Z,55.90
2022-12-17T13:51:04.478Z,56.05
2022-12-17T13:54:15.006Z,58.17
2022-12-17T13:57:23.615Z,56.22
2022-12-17T14:00:28.530Z,63.88
2022-12-17T14:03:57.062Z,53.45
2022-12-17T14:06:55.900Z,55.45
2022-12-17T14:09:57.767Z,53.95
2022-12-17T14:13:13.598Z,55.40
2022-12-17T14:16:19.909Z,59.30
2022-12-17T14:19:25.478Z,49.75
2022-12-17T14:22:34.082Z,56.42
2022-12-17T14:25:39.118Z,55.47
2022-12-17T14:28:50.580Z,57.42
2022-12-17T14:31:58.878Z,48.70
2022-12-17T14:35:01.239Z,49.28
2022-12-17T14:38:04.876Z,57.57
2022-12-17T14:41:32.958Z,56.78
2022-12-17T14:44:54.321Z,52.20
2022-12-17T14:48:01.555Z,57.03
2022-12-17T14:51:03.407Z,54.47
2022-12-17T14:54:14.284Z,45.90
2022-12-17T14:57:23.422Z,49.25
2022-12-17T15:00:25.248Z,52.60
2022-12-17T15:03:29.974Z,49.53
2022-12-17T15:06:31.762Z,47.42
2022-12-17T15:09:40.646Z,49.00
2022-12-17T15:12:43.411Z,50.50
2022-12-17T15:15:46.077Z,53.92
2022-12-17T15:18:47.818Z,47.33
2022-12-17T15:21:49.786Z,47.13
2022-12-17T15:24:51.663Z,46.33
2022-12-17T15:27:53.518Z,47.45
2022-12-17T15:30:55.381Z,54.78
2022-12-17T15:33:58.626Z,48.15
2022-12-17T15:40:02.603Z,57.60
2022-12-17T15:43:13.649Z,61.40
2022-12-17T15:46:16.340Z,71.85
2022-12-17T15:49:18.260Z,70.43
2022-12-17T15:52:20.255Z,69.57
2022-12-17T15:55:22.453Z,82.43
2022-12-17T15:58:24.363Z,64.75
2022-12-17T16:01:26.227Z,110.68
2022-12-17T16:04:28.592Z,90.28
2022-12-17T16:07:30.898Z,75.55
2022-12-17T16:10:33.402Z,72.70
2022-12-17T16:13:36.030Z,123.00
2022-12-17T16:16:37.778Z,93.38
2022-12-17T16:19:39.851Z,101.43
2022-12-17T16:22:41.671Z,93.88
2022-12-17T16:25:43.463Z,108.15
2022-12-17T16:28:45.631Z,76.20
2022-12-17T16:31:48.742Z,154.38
2022-12-17T16:34:50.469Z,93.55
2022-12-17T16:37:52.256Z,77.85
2022-12-17T16:41:02.142Z,99.72
2022-12-17T16:44:05.230Z,96.28
2022-12-17T16:47:07.281Z,124.03
2022-12-17T16:50:09.078Z,104.40
2022-12-17T16:53:11.127Z,83.95
2022-12-17T16:56:18.770Z,81.80
2022-12-17T16:59:21.974Z,79.68
2022-12-17T17:05:26.154Z,83.85
2022-12-17T17:08:28.456Z,80.88
2022-12-17T17:11:30.875Z,78.93
2022-12-17T17:14:32.574Z,89.25
2022-12-17T17:17:54.179Z,84.95
2022-12-17T17:21:28.060Z,79.38
2022-12-17T17:27:31.985Z,113.13
2022-12-17T17:30:33.828Z,95.53
2022-12-17T17:33:38.715Z,157.30
2022-12-17T17:36:41.127Z,129.15
2022-12-17T17:39:43.221Z,128.00
2022-12-17T17:42:50.120Z,75.82
2022-12-17T17:45:53.459Z,143.98
2022-12-17T17:48:57.779Z,118.03
2022-12-17T17:52:09.371Z,126.97
2022-12-17T17:55:12.187Z,120.63
2022-12-17T17:58:15.146Z,174.18
2022-12-17T18:01:21.052Z,254.88
2022-12-17T18:04:24.290Z,158.68
2022-12-17T18:13:51.702Z,122.63
2022-12-17T18:16:53.725Z,173.30
2022-12-17T18:19:55.468Z,128.95
2022-12-17T18:22:57.162Z,92.00
2022-12-17T18:26:17.040Z,108.78
2022-12-17T18:29:24.395Z,96.35
2022-12-17T18:32:26.291Z,131.52
2022-12-17T18:35:28.103Z,113.78
2022-12-17T18:38:29.892Z,98.85
2022-12-17T18:41:50.413Z,131.38
2022-12-17T18:44:52.265Z,101.40
2022-12-17T18:47:54.017Z,89.20
2022-12-17T18:50:58.632Z,92.57
2022-12-17T18:54:08.693Z,106.03
2022-12-17T18:57:10.690Z,123.03
2022-12-17T19:00:12.976Z,92.97
2022-12-17T19:03:14.820Z,89.85
2022-12-17T19:06:17.721Z,92.90
2022-12-17T19:09:34.427Z,88.55
2022-12-17T19:12:36.256Z,92.28
2022-12-17T19:15:38.086Z,101.55
2022-12-17T19:18:41.044Z,148.20
2022-12-17T19:24:44.709Z,140.38
2022-12-17T19:27:46.692Z,167.02
2022-12-17T19:30:48.516Z,233.82
2022-12-17T19:33:55.289Z,169.93
2022-12-17T19:36:57.217Z,138.93
2022-12-17T19:39:58.988Z,128.68
2022-12-17T19:43:00.771Z,133.63
2022-12-17T19:46:08.597Z,142.73
2022-12-17T19:49:12.743Z,248.13
2022-12-17T19:52:15.006Z,204.57
2022-12-17T19:55:17.815Z,159.80
2022-12-17T19:58:19.588Z,124.03
2022-12-17T20:01:27.108Z,106.38
2022-12-17T20:04:29.488Z,105.97
2022-12-17T20:07:31.432Z,110.23
2022-12-17T20:10:33.775Z,104.85
2022-12-17T20:13:35.602Z,97.40
2022-12-17T20:16:39.884Z,97.95
2022-12-17T20:19:43.659Z,92.32
2022-12-17T20:22:45.618Z,83.25
2022-12-17T20:25:47.655Z,92.28
2022-12-17T20:28:49.465Z,92.13
2022-12-17T20:31:53.382Z,86.00
2022-12-17T20:34:55.388Z,86.47
2022-12-17T20:37:57.179Z,80.97
2022-12-17T20:40:59.106Z,79.95
2022-12-17T20:44:07.466Z,78.10
2022-12-17T20:47:09.441Z,71.30
2022-12-17T20:50:11.265Z,75.25
2022-12-17T20:53:13.090Z,75.50
2022-12-17T20:56:20.689Z,77.85
2022-12-17T20:59:22.521Z,72.15
2022-12-17T21:02:24.429Z,73.80
2022-12-17T21:05:26.732Z,55.43
2022-12-17T21:08:29.008Z,71.38
2022-12-17T21:11:32.802Z,60.67
2022-12-17T21:14:35.889Z,75.93
2022-12-17T21:17:37.900Z,69.93
2022-12-17T21:20:39.788Z,79.90
2022-12-17T21:23:41.914Z,78.83
2022-12-17T21:26:45.827Z,86.00
2022-12-17T21:29:47.722Z,77.38
2022-12-17T21:32:49.663Z,73.45
2022-12-17T21:36:01.413Z,81.55
2022-12-17T21:39:11.924Z,78.22
2022-12-17T21:42:32.150Z,80.63
2022-12-17T21:45:42.084Z,73.43
2022-12-17T21:48:44.486Z,75.97
2022-12-17T21:51:46.479Z,78.60
2022-12-17T21:54:48.616Z,72.18
2022-12-17T21:57:52.227Z,77.13
2022-12-17T22:00:54.226Z,73.82
2022-12-17T22:03:58.794Z,76.53
2022-12-17T22:07:05.763Z,74.47
2022-12-17T22:10:31.809Z,70.28
2022-12-17T22:13:51.022Z,79.78
2022-12-17T22:16:52.731Z,77.60
2022-12-17T22:19:54.450Z,78.32
2022-12-17T22:22:56.399Z,75.25
2022-12-17T22:25:58.356Z,76.17
2022-12-17T22:29:00.614Z,79.35
2022-12-17T22:32:20.867Z,80.40
2022-12-17T22:37:50.941Z,74.15
2022-12-17T22:43:30.923Z,75.93
2022-12-17T22:44:43.344Z,78.25
2022-12-17T22:45:47.625Z,77.72
2022-12-17T22:48:49.586Z,75.18
2022-12-17T22:51:51.380Z,70.03
2022-12-17T22:54:53.092Z,72.25
2022-12-17T22:57:57.116Z,73.35
2022-12-17T23:00:59.502Z,75.90
2022-12-17T23:04:03.094Z,82.00
2022-12-17T23:07:05.513Z,76.07
2022-12-17T23:10:09.588Z,77.75
2022-12-17T23:13:11.425Z,73.22
2022-12-17T23:16:14.428Z,79.57
2022-12-17T23:22:22.148Z,77.22
2022-12-17T23:25:25.288Z,73.07
2022-12-17T23:28:27.244Z,79.85
2022-12-17T23:31:33.339Z,72.75
2022-12-17T23:34:35.202Z,75.78
2022-12-17T23:37:39.915Z,71.70
2022-12-17T23:40:42.055Z,77.78
2022-12-17T23:43:44.596Z,78.70
2022-12-17T23:46:46.434Z,72.07
2022-12-17T23:49:48.604Z,72.75
2022-12-17T23:52:50.434Z,70.70
2022-12-17T23:55:52.238Z,77.63
2022-12-17T23:58:57.501Z,71.70
